createdAt,value
2022-08-07T00:02:37.593Z,21.59
2022-08-07T00:04:45.364Z,21.58
2022-08-07T00:07:48.179Z,21.55
2022-08-07T00:11:00.775Z,21.55
2022-08-07T00:14:07.191Z,21.58
2022-08-07T00:17:13.509Z,21.60
2022-08-07T00:20:15.854Z,21.62
2022-08-07T00:23:34.586Z,21.68
2022-08-07T00:26:59.309Z,21.74
2022-08-07T00:29:59.226Z,21.82
2022-08-07T00:33:02.172Z,21.92
2022-08-07T00:36:06.904Z,21.95
2022-08-07T00:39:09.266Z,21.99
2022-08-07T00:42:18.945Z,21.99
2022-08-07T00:45:31.358Z,22.16
2022-08-07T00:48:33.810Z,22.18
2022-08-07T00:51:58.385Z,22.16
2022-08-07T00:55:00.143Z,22.06
2022-08-07T00:58:07.227Z,22.01
2022-08-07T01:01:10.072Z,21.95
2022-08-07T01:04:12.387Z,22.02
2022-08-07T01:07:29.455Z,22.03
2022-08-07T01:10:32.255Z,22.10
2022-08-07T01:13:37.159Z,22.22
2022-08-07T01:16:39.896Z,22.28
2022-08-07T01:19:53.899Z,22.30
2022-08-07T01:23:09.181Z,22.30
2022-08-07T01:26:17.539Z,22.30
2022-08-07T01:29:27.948Z,22.30
2022-08-07T01:32:34.588Z,22.36
2022-08-07T01:35:53.594Z,22.35
2022-08-07T01:38:58.466Z,22.30
2022-08-07T01:42:07.333Z,22.22
2022-08-07T01:45:36.186Z,22.22
2022-08-07T01:48:47.906Z,22.24
2022-08-07T01:52:03.652Z,22.33
2022-08-07T01:55:11.021Z,22.33
2022-08-07T01:58:33.175Z,22.32
2022-08-07T02:02:02.387Z,22.28
2022-08-07T02:05:16.073Z,22.35
2022-08-07T02:08:40.468Z,22.42
2022-08-07T02:12:03.310Z,22.50
2022-08-07T02:15:10.048Z,22.55
2022-08-07T02:18:14.136Z,22.56
2022-08-07T02:21:17.709Z,22.56
2022-08-07T02:24:21.896Z,22.50
2022-08-07T02:27:26.517Z,22.52
2022-08-07T02:30:39.397Z,22.55
2022-08-07T02:34:03.058Z,22.61
2022-08-07T02:37:08.775Z,22.55
2022-08-07T02:40:30.165Z,22.61
2022-08-07T02:43:39.440Z,22.56
2022-08-07T02:46:46.559Z,22.57
2022-08-07T02:49:56.507Z,22.52
2022-08-07T02:53:10.977Z,22.59
2022-08-07T02:56:21.058Z,22.53
2022-08-07T02:59:27.704Z,22.53
2022-08-07T03:02:32.474Z,22.44
2022-08-07T03:05:37.828Z,22.33
2022-08-07T03:08:41.294Z,22.32
2022-08-07T03:11:52.713Z,22.44
2022-08-07T03:15:07.601Z,22.35
2022-08-07T03:18:11.485Z,22.38
2022-08-07T03:21:20.438Z,22.37
2022-08-07T03:24:27.554Z,22.37
2022-08-07T03:27:59.490Z,22.45
2022-08-07T03:31:14.990Z,22.42
2022-08-07T03:34:22.358Z,22.40
2022-08-07T03:37:27.597Z,22.35
2022-08-07T03:40:36.306Z,22.37
2022-08-07T03:43:39.840Z,22.30
2022-08-07T03:47:13.306Z,22.28
2022-08-07T03:50:23.142Z,22.21
2022-08-07T03:54:00.653Z,22.16
2022-08-07T03:57:03.695Z,22.27
2022-08-07T04:00:11.678Z,22.30
2022-08-07T04:03:19.274Z,22.28
2022-08-07T04:06:37.258Z,22.27
2022-08-07T04:09:45.494Z,22.27
2022-08-07T04:12:54.388Z,22.25
2022-08-07T04:15:58.428Z,22.31
2022-08-07T04:19:04.061Z,22.34
2022-08-07T04:22:17.628Z,22.32
2022-08-07T04:25:23.917Z,22.36
2022-08-07T04:28:26.569Z,22.41
2022-08-07T04:31:38.380Z,22.38
2022-08-07T04:34:52.747Z,22.41
2022-08-07T04:38:03.106Z,22.58
2022-08-07T04:41:10.765Z,22.61
2022-08-07T04:44:22.639Z,22.68
2022-08-07T04:48:01.037Z,22.74
2022-08-07T04:51:05.801Z,22.78
2022-08-07T04:54:30.032Z,22.75
2022-08-07T04:58:11.156Z,22.64
2022-08-07T05:01:29.940Z,22.58
2022-08-07T05:04:57.050Z,22.59
2022-08-07T05:08:07.228Z,22.54
2022-08-07T05:11:26.341Z,22.52
2022-08-07T05:14:54.717Z,22.25
2022-08-07T05:18:09.217Z,22.29
2022-08-07T05:21:18.343Z,22.25
2022-08-07T05:24:42.079Z,22.34
2022-08-07T05:28:03.104Z,22.39
2022-08-07T05:31:16.585Z,22.52
2022-08-07T05:34:20.994Z,22.61
2022-08-07T05:37:30.648Z,22.52
2022-08-07T05:40:50.670Z,22.40
2022-08-07T05:44:12.205Z,22.54
2022-08-07T05:47:19.925Z,22.68
2022-08-07T05:50:23.995Z,22.70
2022-08-07T05:54:12.900Z,22.74
2022-08-07T05:56:51.266Z,22.68
2022-08-07T05:59:57.188Z,22.75
2022-08-07T06:03:04.713Z,22.87
2022-08-07T06:06:09.555Z,23.04
2022-08-07T06:09:12.259Z,22.97
2022-08-07T06:12:15.448Z,23.19
2022-08-07T06:15:19.929Z,23.41
2022-08-07T06:18:23.813Z,23.43
2022-08-07T06:22:14.841Z,23.72
2022-08-07T06:24:58.094Z,23.88
2022-08-07T06:28:06.135Z,23.98
2022-08-07T06:31:09.892Z,24.07
2022-08-07T06:34:12.665Z,24.10
2022-08-07T06:37:17.207Z,23.98
2022-08-07T06:40:23.075Z,24.26
2022-08-07T06:43:39.642Z,24.36
2022-08-07T06:46:42.873Z,24.51
2022-08-07T06:49:58.426Z,24.30
2022-08-07T06:53:04.592Z,24.86
2022-08-07T06:56:14.786Z,24.97
2022-08-07T07:00:12.288Z,25.28
2022-08-07T07:02:54.314Z,25.51
2022-08-07T07:06:03.651Z,25.97
2022-08-07T07:09:19.938Z,26.47
2022-08-07T07:12:48.402Z,25.89
2022-08-07T07:16:00.245Z,25.45
2022-08-07T07:19:33.887Z,25.08
2022-08-07T07:22:36.160Z,24.84
2022-08-07T07:26:34.318Z,24.43
2022-08-07T07:29:39.276Z,24.19
2022-08-07T07:32:40.386Z,24.05
2022-08-07T07:36:04.985Z,24.02
2022-08-07T07:39:10.171Z,24.10
2022-08-07T07:42:17.513Z,24.15
2022-08-07T07:46:36.618Z,24.06
2022-08-07T07:49:00.280Z,24.26
2022-08-07T07:52:16.944Z,24.46
2022-08-07T07:55:20.737Z,24.36
2022-08-07T07:58:40.292Z,24.53
2022-08-07T08:02:03.776Z,24.89
2022-08-07T08:05:14.171Z,25.22
2022-08-07T08:08:34.463Z,25.62
2022-08-07T08:11:59.603Z,26.31
2022-08-07T08:15:01.970Z,26.59
2022-08-07T08:18:17.446Z,26.80
2022-08-07T08:21:58.585Z,26.92
2022-08-07T08:25:24.844Z,27.14
2022-08-07T08:28:46.097Z,27.37
2022-08-07T08:32:16.976Z,27.84
2022-08-07T08:35:18.675Z,27.80
2022-08-07T08:38:26.026Z,27.58
2022-08-07T08:41:57.147Z,27.09
2022-08-07T08:45:14.316Z,26.76
2022-08-07T08:48:40.810Z,27.30
2022-08-07T08:52:14.256Z,27.22
2022-08-07T08:55:55.079Z,27.55
2022-08-07T08:59:00.161Z,27.85
2022-08-07T09:02:35.186Z,28.22
2022-08-07T09:06:04.052Z,28.17
2022-08-07T09:09:40.885Z,29.24
2022-08-07T09:12:52.960Z,29.50
2022-08-07T09:16:22.935Z,30.00
2022-08-07T09:19:51.821Z,29.83
2022-08-07T09:24:49.117Z,29.52
2022-08-07T09:26:53.190Z,29.23
2022-08-07T09:30:10.327Z,29.56
2022-08-07T09:33:52.627Z,29.63
2022-08-07T09:37:03.286Z,29.62
2022-08-07T09:40:22.049Z,29.98
2022-08-07T09:44:06.170Z,30.70
2022-08-07T09:47:58.122Z,31.12
2022-08-07T09:50:56.059Z,32.20
2022-08-07T09:54:05.372Z,32.87
2022-08-07T09:57:21.931Z,32.70
2022-08-07T10:00:32.628Z,31.52
2022-08-07T10:04:14.005Z,31.41
2022-08-07T10:07:52.870Z,31.50
2022-08-07T10:12:01.635Z,31.69
2022-08-07T10:15:26.535Z,31.36
2022-08-07T10:18:40.051Z,30.78
2022-08-07T10:22:16.157Z,30.78
2022-08-07T10:25:43.151Z,31.10
2022-08-07T10:29:08.047Z,31.18
2022-08-07T10:32:36.745Z,30.88
2022-08-07T10:36:16.989Z,31.06
2022-08-07T10:39:57.609Z,31.21
2022-08-07T10:43:15.460Z,30.40
2022-08-07T10:46:26.985Z,31.18
2022-08-07T10:49:49.307Z,31.51
2022-08-07T10:53:22.827Z,31.29
2022-08-07T10:56:54.575Z,30.97
2022-08-07T11:00:03.754Z,31.67
2022-08-07T11:03:23.747Z,31.52
2022-08-07T11:06:50.450Z,31.44
2022-08-07T11:10:07.230Z,31.60
2022-08-07T11:14:57.045Z,31.25
2022-08-07T11:17:01.998Z,30.29
2022-08-07T11:20:09.697Z,30.51
2022-08-07T11:23:30.513Z,30.58
2022-08-07T11:26:50.508Z,30.72
2022-08-07T11:30:18.673Z,31.58
2022-08-07T11:33:54.288Z,31.60
2022-08-07T11:37:38.554Z,31.78
2022-08-07T11:41:18.228Z,32.29
2022-08-07T11:44:52.562Z,32.69
2022-08-07T11:48:29.238Z,33.39
2022-08-07T11:51:50.733Z,33.79
2022-08-07T11:55:18.712Z,33.32
2022-08-07T11:58:39.279Z,33.63
2022-08-07T12:02:20.655Z,35.30
2022-08-07T12:05:49.394Z,36.62
2022-08-07T12:09:40.221Z,35.71
2022-08-07T12:13:11.636Z,35.95
2022-08-07T12:16:30.234Z,35.06
2022-08-07T12:20:02.753Z,34.65
2022-08-07T12:24:05.860Z,35.37
2022-08-07T12:26:58.740Z,36.40
2022-08-07T12:30:07.531Z,36.72
2022-08-07T12:33:28.241Z,37.58
2022-08-07T12:36:34.825Z,37.17
2022-08-07T12:39:50.552Z,36.87
2022-08-07T12:42:57.391Z,36.69
2022-08-07T12:46:10.456Z,37.36
2022-08-07T12:49:51.699Z,37.08
2022-08-07T12:53:18.960Z,36.62
2022-08-07T12:56:36.235Z,36.75
2022-08-07T12:59:54.544Z,36.01
2022-08-07T13:03:26.812Z,34.76
2022-08-07T13:07:08.970Z,35.67
2022-08-07T13:10:51.734Z,35.53
2022-08-07T13:14:18.474Z,35.71
2022-08-07T13:17:40.624Z,34.42
2022-08-07T13:20:51.084Z,34.22
2022-08-07T13:24:04.747Z,33.54
2022-08-07T13:27:20.819Z,32.89
2022-08-07T13:30:40.030Z,33.37
2022-08-07T13:34:32.092Z,33.47
2022-08-07T13:38:02.331Z,33.10
2022-08-07T13:41:35.025Z,33.30
2022-08-07T13:44:39.594Z,33.67
2022-08-07T13:48:07.721Z,33.74
2022-08-07T13:51:27.461Z,33.84
2022-08-07T13:54:33.594Z,33.11
2022-08-07T13:57:39.708Z,32.75
2022-08-07T14:01:10.957Z,32.76
2022-08-07T14:04:16.341Z,32.34
2022-08-07T14:07:28.523Z,32.53
2022-08-07T14:10:42.079Z,32.55
2022-08-07T14:13:55.080Z,32.08
2022-08-07T14:17:32.233Z,32.08
2022-08-07T14:20:41.190Z,32.08
2022-08-07T14:24:01.048Z,32.29
2022-08-07T14:27:16.201Z,32.25
2022-08-07T14:34:01.601Z,31.25
2022-08-07T14:37:16.304Z,31.53
2022-08-07T14:40:27.259Z,31.68
2022-08-07T14:43:58.469Z,31.93
2022-08-07T14:47:08.901Z,31.86
2022-08-07T14:50:22.549Z,31.91
2022-08-07T14:54:03.573Z,32.16
2022-08-07T14:56:57.018Z,31.80
2022-08-07T15:00:03.577Z,31.84
2022-08-07T15:03:18.658Z,31.39
2022-08-07T15:06:25.253Z,31.59
2022-08-07T15:13:06.323Z,31.49
2022-08-07T15:16:14.626Z,31.11
2022-08-07T15:19:22.546Z,30.81
2022-08-07T15:22:53.956Z,30.69
2022-08-07T15:25:58.369Z,31.10
2022-08-07T15:30:06.582Z,31.34
2022-08-07T15:32:39.854Z,31.33
2022-08-07T15:36:01.175Z,31.25
2022-08-07T15:39:10.513Z,31.49
2022-08-07T15:42:43.863Z,31.33
2022-08-07T15:45:58.263Z,31.23
2022-08-07T15:49:12.917Z,31.06
2022-08-07T15:52:30.162Z,30.77
2022-08-07T15:55:53.804Z,30.80
2022-08-07T15:59:01.082Z,31.12
2022-08-07T16:02:06.860Z,31.12
2022-08-07T16:05:20.050Z,31.02
2022-08-07T16:08:37.878Z,31.07
2022-08-07T16:12:12.495Z,31.35
2022-08-07T16:15:55.466Z,30.92
2022-08-07T16:19:42.531Z,30.47
2022-08-07T16:22:56.629Z,30.43
2022-08-07T16:26:02.251Z,30.49
2022-08-07T16:30:11.936Z,30.44
2022-08-07T16:34:03.182Z,30.54
2022-08-07T16:37:01.669Z,30.33
2022-08-07T16:40:33.538Z,30.30
2022-08-07T16:44:02.348Z,30.07
2022-08-07T16:47:18.664Z,30.06
2022-08-07T16:51:20.484Z,30.04
2022-08-07T16:54:54.202Z,30.05
2022-08-07T16:59:10.236Z,29.94
2022-08-07T17:02:51.181Z,29.73
2022-08-07T17:06:29.976Z,29.70
2022-08-07T17:10:05.200Z,29.57
2022-08-07T17:13:21.246Z,29.59
2022-08-07T17:16:43.664Z,29.47
2022-08-07T17:20:02.567Z,29.33
2022-08-07T17:23:17.183Z,29.17
2022-08-07T17:26:36.824Z,29.27
2022-08-07T17:30:19.710Z,29.03
2022-08-07T17:34:10.195Z,29.06
2022-08-07T17:37:14.256Z,28.97
2022-08-07T17:40:39.761Z,28.95
2022-08-07T17:44:03.153Z,28.97
2022-08-07T17:47:38.393Z,28.78
2022-08-07T17:50:57.385Z,28.68
2022-08-07T17:54:39.566Z,28.64
2022-08-07T17:57:56.286Z,28.50
2022-08-07T18:01:21.150Z,28.44
2022-08-07T18:04:35.086Z,28.50
2022-08-07T18:07:37.676Z,28.46
2022-08-07T18:12:16.257Z,28.44
2022-08-07T18:14:37.554Z,28.33
2022-08-07T18:18:44.853Z,28.24
2022-08-07T18:21:38.269Z,28.14
2022-08-07T18:25:01.513Z,28.17
2022-08-07T18:28:35.190Z,28.08
2022-08-07T18:31:57.805Z,28.16
2022-08-07T18:35:10.425Z,28.19
2022-08-07T18:38:59.590Z,28.11
2022-08-07T18:42:29.276Z,28.07
2022-08-07T18:46:25.081Z,28.14
2022-08-07T18:50:31.269Z,28.01
2022-08-07T18:53:21.923Z,27.80
2022-08-07T18:56:58.936Z,27.80
2022-08-07T19:00:34.507Z,27.63
2022-08-07T19:03:43.885Z,27.35
2022-08-07T19:06:56.485Z,27.15
2022-08-07T19:10:12.131Z,26.98
2022-08-07T19:13:55.346Z,26.87
2022-08-07T19:17:08.136Z,26.73
2022-08-07T19:20:28.827Z,26.60
2022-08-07T19:23:59.232Z,26.48
2022-08-07T19:28:57.600Z,26.35
2022-08-07T19:30:55.493Z,26.31
2022-08-07T19:34:02.593Z,26.19
2022-08-07T19:37:17.507Z,26.12
2022-08-07T19:40:30.555Z,26.05
2022-08-07T19:43:49.218Z,25.96
2022-08-07T19:47:05.018Z,25.89
2022-08-07T19:50:44.274Z,25.84
2022-08-07T19:54:33.257Z,25.77
2022-08-07T19:58:02.614Z,25.69
2022-08-07T20:00:28.814Z,25.58
2022-08-07T20:03:35.670Z,25.50
2022-08-07T20:06:42.996Z,25.40
2022-08-07T20:10:35.847Z,25.29
2022-08-07T20:13:22.639Z,25.14
2022-08-07T20:16:35.471Z,25.01
2022-08-07T20:19:48.307Z,24.84
2022-08-07T20:23:23.264Z,24.86
2022-08-07T20:26:45.065Z,24.78
2022-08-07T20:29:58.413Z,24.60
2022-08-07T20:33:05.755Z,24.46
2022-08-07T20:36:13.240Z,24.35
2022-08-07T20:40:01.362Z,24.19
2022-08-07T20:42:48.331Z,24.10
2022-08-07T20:46:27.694Z,24.55
2022-08-07T20:49:59.782Z,24.51
2022-08-07T20:52:51.335Z,24.49
2022-08-07T20:55:57.582Z,24.29
2022-08-07T20:59:05.146Z,24.26
2022-08-07T21:02:39.317Z,24.23
2022-08-07T21:05:55.714Z,24.15
2022-08-07T21:09:13.720Z,24.12
2022-08-07T21:12:29.116Z,24.05
2022-08-07T21:15:47.595Z,23.96
2022-08-07T21:19:01.115Z,23.91
2022-08-07T21:22:05.759Z,23.82
2022-08-07T21:25:19.159Z,23.77
2022-08-07T21:28:48.362Z,23.74
2022-08-07T21:32:46.897Z,23.74
2022-08-07T21:35:34.535Z,23.61
2022-08-07T21:39:45.138Z,23.47
2022-08-07T21:43:04.378Z,23.32
2022-08-07T21:46:24.880Z,23.43
2022-08-07T21:50:02.107Z,23.37
2022-08-07T21:53:16.994Z,23.33
2022-08-07T21:56:47.083Z,23.23
2022-08-07T22:00:09.283Z,23.17
2022-08-07T22:03:47.566Z,23.18
2022-08-07T22:07:10.056Z,22.99
2022-08-07T22:10:17.442Z,22.84
2022-08-07T22:13:24.685Z,23.00
2022-08-07T22:16:54.018Z,23.00
2022-08-07T22:20:24.007Z,22.94
2022-08-07T22:23:40.495Z,22.87
2022-08-07T22:26:50.763Z,22.82
2022-08-07T22:30:12.703Z,22.80
2022-08-07T22:33:17.166Z,22.76
2022-08-07T22:36:53.166Z,22.69
2022-08-07T22:40:22.499Z,22.68
2022-08-07T22:43:57.255Z,22.60
2022-08-07T22:47:23.185Z,22.41
2022-08-07T22:51:00.757Z,22.40
2022-08-07T22:54:08.757Z,22.37
2022-08-07T22:57:16.956Z,22.29
2022-08-07T23:00:28.385Z,22.14
2022-08-07T23:04:00.177Z,22.34
2022-08-07T23:07:41.258Z,22.40
2022-08-07T23:11:28.549Z,22.47
2022-08-07T23:15:06.528Z,22.47
2022-08-07T23:18:42.969Z,22.33
2022-08-07T23:21:56.088Z,22.34
2022-08-07T23:25:28.461Z,22.13
2022-08-07T23:29:00.458Z,22.35
2022-08-07T23:34:19.829Z,22.29
2022-08-07T23:35:29.097Z,22.18
2022-08-07T23:38:54.499Z,22.30
2022-08-07T23:42:25.573Z,22.39
2022-08-07T23:46:03.189Z,22.36
2022-08-07T23:49:50.278Z,22.13
2022-08-07T23:53:11.656Z,22.11
2022-08-07T23:56:37.855Z,21.96
